createdAt,value
2019-05-26T00:00:13.645Z,6.57
2019-05-26T00:02:41.382Z,5.60
2019-05-26T00:05:09.096Z,5.80
2019-05-26T00:07:36.957Z,6.10
2019-05-26T00:10:04.788Z,4.90
2019-05-26T00:12:32.509Z,5.57
2019-05-26T00:15:00.278Z,5.47
2019-05-26T00:17:28.007Z,5.63
2019-05-26T00:19:55.842Z,5.90
2019-05-26T00:22:23.623Z,5.93
2019-05-26T00:24:51.298Z,6.07
2019-05-26T00:27:19.026Z,6.10
2019-05-26T00:29:46.733Z,5.93
2019-05-26T00:32:14.523Z,5.50
2019-05-26T00:34:42.297Z,6.57
2019-05-26T00:37:10.990Z,5.70
2019-05-26T00:39:38.718Z,5.67
2019-05-26T00:42:06.573Z,5.50
2019-05-26T00:44:34.274Z,6.17
2019-05-26T00:47:02.010Z,5.70
2019-05-26T00:49:29.706Z,6.40
2019-05-26T00:51:57.524Z,6.13
2019-05-26T00:54:25.230Z,5.93
2019-05-26T00:56:52.959Z,5.67
2019-05-26T00:59:20.679Z,5.17
2019-05-26T01:01:48.403Z,5.67
2019-05-26T01:04:16.168Z,5.83
2019-05-26T01:06:43.911Z,5.63
2019-05-26T01:09:11.632Z,5.03
2019-05-26T01:11:39.329Z,6.07
2019-05-26T01:14:07.126Z,5.30
2019-05-26T01:16:34.827Z,5.33
2019-05-26T01:19:02.545Z,5.00
2019-05-26T01:21:30.366Z,5.33
2019-05-26T01:23:58.085Z,4.87
2019-05-26T01:26:25.821Z,5.10
2019-05-26T01:28:53.544Z,5.50
2019-05-26T01:31:21.258Z,4.73
2019-05-26T01:33:49.030Z,4.63
2019-05-26T01:36:16.725Z,5.13
2019-05-26T01:38:44.483Z,5.40
2019-05-26T01:41:12.186Z,4.63
2019-05-26T01:43:40.017Z,4.73
2019-05-26T01:46:09.955Z,5.03
2019-05-26T01:48:37.781Z,4.50
2019-05-26T01:51:05.589Z,4.73
2019-05-26T01:53:33.406Z,4.77
2019-05-26T01:56:01.114Z,4.60
2019-05-26T01:58:28.955Z,5.13
2019-05-26T02:00:56.667Z,5.07
2019-05-26T02:03:24.498Z,4.33
2019-05-26T02:05:52.229Z,4.83
2019-05-26T02:08:19.939Z,4.97
2019-05-26T02:10:47.703Z,4.43
2019-05-26T02:13:15.445Z,4.63
2019-05-26T02:15:43.201Z,4.27
2019-05-26T02:18:10.981Z,4.97
2019-05-26T02:20:38.851Z,4.80
2019-05-26T02:23:06.629Z,4.60
2019-05-26T02:25:34.335Z,4.33
2019-05-26T02:28:02.049Z,5.03
2019-05-26T02:30:29.834Z,4.87
2019-05-26T02:32:58.620Z,4.97
2019-05-26T02:35:26.445Z,5.27
2019-05-26T02:37:54.155Z,4.47
2019-05-26T02:40:22.174Z,4.63
2019-05-26T02:42:49.867Z,4.33
2019-05-26T02:45:17.714Z,4.90
2019-05-26T02:47:45.721Z,5.00
2019-05-26T02:50:14.754Z,4.53
2019-05-26T02:52:42.523Z,4.63
2019-05-26T02:55:10.323Z,5.43
2019-05-26T02:57:40.442Z,4.53
2019-05-26T03:00:08.541Z,4.53
2019-05-26T03:02:36.300Z,4.40
2019-05-26T03:05:05.152Z,4.47
2019-05-26T03:07:32.902Z,4.73
2019-05-26T03:10:00.746Z,4.77
2019-05-26T03:12:28.905Z,4.60
2019-05-26T03:14:56.691Z,4.60
2019-05-26T03:17:24.396Z,5.00
2019-05-26T03:19:52.874Z,5.43
2019-05-26T03:22:20.687Z,4.90
2019-05-26T03:24:49.887Z,4.93
2019-05-26T03:27:17.655Z,4.27
2019-05-26T03:29:45.459Z,5.10
2019-05-26T03:32:13.242Z,4.80
2019-05-26T03:34:40.974Z,4.43
2019-05-26T03:37:08.938Z,4.63
2019-05-26T03:39:44.415Z,5.07
2019-05-26T03:42:06.150Z,4.80
2019-05-26T03:44:34.067Z,4.83
2019-05-26T03:47:01.813Z,5.03
2019-05-26T03:49:29.639Z,5.47
2019-05-26T03:51:57.355Z,4.93
2019-05-26T03:54:25.132Z,4.87
2019-05-26T03:56:52.846Z,4.67
2019-05-26T03:59:20.547Z,5.33
2019-05-26T04:01:48.454Z,5.10
2019-05-26T04:04:16.218Z,5.80
2019-05-26T04:06:44.018Z,4.97
2019-05-26T04:09:11.905Z,5.17
2019-05-26T04:11:39.843Z,5.33
2019-05-26T04:14:07.608Z,5.10
2019-05-26T04:16:35.339Z,5.37
2019-05-26T04:19:03.234Z,5.83
2019-05-26T04:21:31.073Z,4.93
2019-05-26T04:23:58.873Z,5.03
2019-05-26T04:26:26.717Z,5.30
2019-05-26T04:28:54.657Z,5.70
2019-05-26T04:31:22.389Z,5.97
2019-05-26T04:33:50.518Z,6.00
2019-05-26T04:36:18.380Z,5.83
2019-05-26T04:38:46.164Z,5.90
2019-05-26T04:41:13.984Z,5.77
2019-05-26T04:43:41.766Z,6.00
2019-05-26T04:46:09.475Z,5.57
2019-05-26T04:48:37.440Z,5.87
2019-05-26T04:51:05.147Z,6.40
2019-05-26T04:53:33.222Z,5.53
2019-05-26T04:56:00.991Z,6.33
2019-05-26T04:58:28.759Z,6.63
2019-05-26T05:00:56.496Z,6.07
2019-05-26T05:03:24.455Z,5.50
2019-05-26T05:05:52.186Z,5.83
2019-05-26T05:08:19.979Z,5.80
2019-05-26T05:10:47.670Z,6.30
2019-05-26T05:13:15.484Z,6.70
2019-05-26T05:15:43.198Z,6.57
2019-05-26T05:18:10.921Z,6.53
2019-05-26T05:20:38.981Z,6.67
2019-05-26T05:23:06.754Z,10.20
2019-05-26T05:25:34.558Z,6.00
2019-05-26T05:28:02.345Z,6.93
2019-05-26T05:30:30.096Z,6.93
2019-05-26T05:32:58.138Z,6.97
2019-05-26T05:35:25.897Z,7.33
2019-05-26T05:37:53.801Z,7.07
2019-05-26T05:40:21.593Z,7.70
2019-05-26T05:42:49.336Z,6.80
2019-05-26T05:45:17.129Z,7.63
2019-05-26T05:47:44.809Z,6.83
2019-05-26T05:50:12.619Z,7.87
2019-05-26T05:52:40.345Z,7.40
2019-05-26T05:55:08.148Z,8.10
2019-05-26T05:57:35.862Z,8.10
2019-05-26T06:00:04.544Z,7.07
2019-05-26T06:02:32.495Z,8.30
2019-05-26T06:05:00.357Z,7.57
2019-05-26T06:07:28.083Z,7.93
2019-05-26T06:09:56.081Z,8.50
2019-05-26T06:12:23.854Z,7.10
2019-05-26T06:14:51.614Z,7.80
2019-05-26T06:17:19.355Z,8.37
2019-05-26T06:19:47.173Z,9.28
2019-05-26T06:22:15.377Z,7.73
2019-05-26T06:24:43.132Z,7.70
2019-05-26T06:27:10.846Z,8.07
2019-05-26T06:29:38.721Z,7.87
2019-05-26T06:32:06.707Z,8.60
2019-05-26T06:34:34.606Z,8.40
2019-05-26T06:37:02.452Z,9.47
2019-05-26T06:39:30.150Z,9.07
2019-05-26T06:41:58.101Z,8.83
2019-05-26T06:44:25.891Z,9.17
2019-05-26T06:46:53.642Z,8.50
2019-05-26T06:49:21.336Z,9.73
2019-05-26T06:51:49.167Z,7.97
2019-05-26T06:54:16.853Z,8.77
2019-05-26T06:56:44.788Z,9.00
2019-05-26T06:59:12.484Z,10.13
2019-05-26T07:01:40.238Z,9.33
2019-05-26T07:04:07.993Z,9.50
2019-05-26T07:06:35.866Z,9.33
2019-05-26T07:09:05.358Z,9.73
2019-05-26T07:11:49.054Z,8.87
2019-05-26T07:14:03.066Z,10.07
2019-05-26T07:16:38.196Z,10.27
2019-05-26T07:19:00.357Z,9.67
2019-05-26T07:21:28.419Z,9.13
2019-05-26T07:23:56.178Z,8.83
2019-05-26T07:26:23.981Z,8.43
2019-05-26T07:28:51.710Z,9.33
2019-05-26T07:31:19.575Z,9.80
2019-05-26T07:33:47.258Z,10.00
2019-05-26T07:36:15.073Z,8.43
2019-05-26T07:38:42.788Z,9.30
2019-05-26T07:41:10.509Z,9.70
2019-05-26T07:43:41.195Z,9.20
2019-05-26T07:46:08.974Z,9.83
2019-05-26T07:52:51.869Z,9.47
2019-05-26T08:02:40.294Z,9.73
2019-05-26T08:05:16.415Z,8.93
2019-05-26T08:11:45.808Z,9.20
2019-05-26T08:14:33.973Z,7.93
2019-05-26T08:17:01.761Z,7.30
2019-05-26T08:19:29.542Z,8.03
2019-05-26T08:21:57.336Z,7.93
2019-05-26T08:24:25.100Z,8.50
2019-05-26T08:26:52.982Z,7.67
2019-05-26T08:29:20.978Z,8.30
2019-05-26T08:31:48.701Z,8.50
2019-05-26T08:34:16.613Z,9.43
2019-05-26T08:36:44.437Z,8.93
2019-05-26T08:39:12.177Z,10.23
2019-05-26T08:41:39.982Z,8.93
2019-05-26T08:44:07.748Z,8.87
2019-05-26T08:46:35.532Z,9.17
2019-05-26T08:49:04.125Z,9.90
2019-05-26T08:51:32.018Z,9.37
2019-05-26T08:53:59.873Z,10.13
2019-05-26T08:56:27.566Z,8.90
2019-05-26T08:58:55.392Z,10.27
2019-05-26T09:01:23.123Z,11.50
2019-05-26T09:03:51.255Z,10.53
2019-05-26T09:06:19.009Z,10.73
2019-05-26T09:08:46.807Z,11.40
2019-05-26T09:11:14.737Z,10.10
2019-05-26T09:13:42.589Z,10.33
2019-05-26T09:16:11.785Z,11.07
2019-05-26T09:18:39.784Z,11.03
2019-05-26T09:21:08.050Z,10.80
2019-05-26T09:23:36.003Z,11.57
2019-05-26T09:26:06.786Z,10.77
2019-05-26T09:28:35.971Z,10.63
2019-05-26T09:31:07.033Z,10.10
2019-05-26T09:33:37.916Z,11.43
2019-05-26T09:36:05.948Z,11.10
2019-05-26T09:38:36.882Z,11.50
2019-05-26T09:41:06.708Z,11.37
2019-05-26T09:43:36.925Z,11.57
2019-05-26T09:46:04.992Z,11.63
2019-05-26T09:48:32.718Z,11.40
2019-05-26T09:51:00.517Z,11.63
2019-05-26T09:53:28.226Z,11.83
2019-05-26T09:55:55.993Z,10.93
2019-05-26T09:58:26.019Z,11.97
2019-05-26T10:00:54.313Z,10.63
2019-05-26T10:03:40.366Z,10.60
2019-05-26T10:06:17.663Z,11.73
2019-05-26T10:08:48.059Z,12.07
2019-05-26T10:11:56.715Z,12.40
2019-05-26T10:14:31.148Z,10.50
2019-05-26T10:21:15.074Z,11.13
2019-05-26T10:23:53.014Z,11.10
2019-05-26T10:29:10.625Z,11.27
2019-05-26T10:34:44.970Z,11.80
2019-05-26T10:37:28.775Z,11.77
2019-05-26T10:39:59.246Z,11.50
2019-05-26T10:42:29.591Z,12.83
2019-05-26T10:44:58.189Z,12.63
2019-05-26T10:47:27.826Z,11.40
2019-05-26T10:49:55.532Z,11.97
2019-05-26T10:52:23.409Z,11.80
2019-05-26T10:54:51.237Z,11.57
2019-05-26T10:57:19.019Z,11.00
2019-05-26T10:59:46.761Z,11.40
2019-05-26T11:02:14.612Z,11.03
2019-05-26T11:04:42.387Z,10.57
2019-05-26T11:07:11.793Z,11.10
2019-05-26T11:09:40.022Z,11.47
2019-05-26T11:12:07.870Z,11.07
2019-05-26T11:14:35.691Z,10.20
2019-05-26T11:17:03.434Z,10.73
2019-05-26T11:19:32.821Z,9.97
2019-05-26T11:22:15.667Z,9.27
2019-05-26T11:24:43.425Z,10.00
2019-05-26T11:27:15.130Z,9.03
2019-05-26T11:29:43.112Z,8.60
2019-05-26T11:32:11.243Z,9.00
2019-05-26T11:34:40.840Z,9.57
2019-05-26T11:37:09.006Z,9.20
2019-05-26T11:39:40.598Z,8.83
2019-05-26T11:42:13.424Z,9.77
2019-05-26T11:44:37.955Z,9.00
2019-05-26T11:47:06.251Z,9.17
2019-05-26T11:49:34.425Z,9.33
2019-05-26T11:52:02.638Z,9.57
2019-05-26T11:54:33.697Z,10.33
2019-05-26T11:57:00.424Z,10.17
2019-05-26T11:59:30.824Z,10.33
2019-05-26T12:01:58.788Z,9.57
2019-05-26T12:04:37.143Z,9.13
2019-05-26T12:07:08.269Z,9.83
2019-05-26T12:13:05.103Z,11.38
2019-05-26T12:15:33.743Z,9.63
2019-05-26T12:18:03.104Z,9.10
2019-05-26T12:20:30.863Z,9.63
2019-05-26T12:22:58.750Z,9.27
2019-05-26T12:25:28.382Z,9.53
2019-05-26T12:27:56.525Z,9.75
2019-05-26T12:30:30.557Z,8.63
2019-05-26T14:44:48.129Z,5.47
2019-05-26T14:51:48.722Z,5.53
2019-05-26T14:54:16.452Z,5.10
2019-05-26T14:56:44.336Z,5.00
2019-05-26T14:59:12.199Z,5.63
2019-05-26T15:01:40.264Z,4.97
2019-05-26T15:04:07.968Z,5.70
2019-05-26T15:06:35.755Z,5.47
2019-05-26T15:09:05.385Z,5.33
2019-05-26T15:11:33.272Z,5.23
2019-05-26T15:14:01.000Z,5.13
2019-05-26T15:16:29.189Z,6.17
2019-05-26T15:18:57.103Z,4.50
2019-05-26T15:21:25.402Z,5.43
2019-05-26T15:23:53.143Z,5.70
2019-05-26T15:26:20.916Z,5.70
2019-05-26T15:28:48.711Z,6.83
2019-05-26T15:31:16.508Z,4.93
2019-05-26T15:34:05.117Z,4.50
2019-05-26T15:36:32.914Z,4.97
2019-05-26T15:39:00.795Z,5.07
2019-05-26T15:45:44.782Z,4.30
2019-05-26T15:49:25.334Z,3.97
2019-05-26T15:51:53.255Z,4.53
2019-05-26T15:54:21.369Z,4.67
2019-05-26T15:57:04.861Z,4.03
2019-05-26T15:59:32.939Z,4.83
2019-05-26T16:02:01.990Z,4.42
2019-05-26T16:07:19.449Z,4.72
2019-05-26T16:13:14.928Z,3.83
2019-05-26T16:15:42.627Z,4.22
2019-05-26T16:18:52.906Z,4.40
2019-05-26T16:22:00.035Z,4.37
2019-05-26T16:24:35.404Z,4.47
2019-05-26T16:28:01.469Z,4.03
2019-05-26T16:31:22.540Z,4.08
2019-05-26T16:33:05.508Z,4.03
2019-05-26T16:35:33.245Z,4.23
2019-05-26T16:39:16.632Z,4.53
2019-05-26T16:44:33.791Z,4.03
2019-05-26T16:45:36.395Z,4.30
2019-05-26T16:48:05.554Z,3.80
2019-05-26T16:50:33.449Z,3.97
2019-05-26T16:53:01.343Z,4.40
2019-05-26T16:55:30.901Z,4.13
2019-05-26T16:58:01.005Z,3.73
2019-05-26T17:00:29.062Z,3.73
2019-05-26T17:02:57.680Z,3.90
2019-05-26T17:05:25.790Z,3.55
2019-05-26T17:07:53.502Z,3.95
2019-05-26T17:10:21.274Z,3.80
2019-05-26T17:13:02.606Z,3.77
2019-05-26T17:15:30.666Z,3.65
2019-05-26T17:18:02.117Z,3.53
2019-05-26T17:20:30.183Z,3.90
2019-05-26T17:22:57.963Z,3.35
2019-05-26T17:25:26.195Z,3.40
2019-05-26T17:27:53.918Z,3.57
2019-05-26T17:30:22.320Z,4.30
2019-05-26T17:32:50.897Z,3.67
2019-05-26T17:35:18.748Z,4.17
2019-05-26T17:37:46.506Z,3.62
2019-05-26T17:40:14.441Z,3.22
2019-05-26T17:42:42.183Z,3.90
2019-05-26T17:45:10.339Z,3.93
2019-05-26T17:47:38.019Z,4.93
2019-05-26T17:50:05.858Z,3.50
2019-05-26T17:52:33.644Z,3.57
2019-05-26T17:55:01.539Z,4.65
2019-05-26T17:57:29.404Z,3.67
2019-05-26T17:59:57.573Z,3.70
2019-05-26T18:02:25.388Z,3.77
2019-05-26T18:04:53.171Z,3.93
2019-05-26T18:07:21.010Z,4.10
2019-05-26T18:09:48.994Z,4.77
2019-05-26T18:12:16.764Z,3.53
2019-05-26T18:14:44.495Z,3.50
2019-05-26T18:17:12.378Z,3.60
2019-05-26T18:19:40.121Z,4.00
2019-05-26T18:22:07.928Z,4.03
2019-05-26T18:24:35.737Z,4.13
2019-05-26T18:27:03.482Z,3.87
2019-05-26T18:29:31.491Z,4.00
2019-05-26T18:31:59.366Z,4.20
2019-05-26T18:34:27.108Z,3.93
2019-05-26T18:36:54.980Z,4.30
2019-05-26T18:39:22.717Z,4.13
2019-05-26T18:41:50.497Z,4.00
2019-05-26T18:44:18.213Z,3.50
2019-05-26T18:46:46.239Z,3.67
2019-05-26T18:49:14.047Z,4.13
2019-05-26T18:51:41.933Z,3.70
2019-05-26T18:54:09.775Z,3.53
2019-05-26T18:56:37.587Z,4.13
2019-05-26T18:59:05.980Z,3.87
2019-05-26T19:01:47.190Z,4.50
2019-05-26T19:04:33.303Z,4.43
2019-05-26T19:07:04.387Z,3.73
2019-05-26T19:09:35.624Z,4.63
2019-05-26T19:15:47.368Z,4.30
2019-05-26T19:18:19.863Z,4.30
2019-05-26T19:20:44.695Z,4.77
2019-05-26T19:23:12.486Z,4.53
2019-05-26T19:25:40.487Z,4.07
2019-05-26T19:28:08.226Z,4.37
2019-05-26T19:30:37.201Z,4.03
2019-05-26T19:33:05.057Z,4.57
2019-05-26T19:35:32.820Z,4.73
2019-05-26T19:38:01.019Z,4.37
2019-05-26T19:40:28.855Z,4.50
2019-05-26T19:42:56.691Z,4.30
2019-05-26T19:45:26.775Z,4.53
2019-05-26T19:47:54.963Z,4.23
2019-05-26T19:50:22.808Z,4.70
2019-05-26T19:52:52.308Z,4.20
2019-05-26T19:55:20.068Z,4.37
2019-05-26T19:57:47.996Z,3.97
2019-05-26T20:00:16.330Z,5.20
2019-05-26T20:02:44.306Z,4.27
2019-05-26T20:05:12.119Z,3.87
2019-05-26T20:07:39.958Z,3.97
2019-05-26T20:10:08.167Z,4.40
2019-05-26T20:12:36.579Z,4.83
2019-05-26T20:15:05.266Z,4.87
2019-05-26T20:17:36.310Z,4.53
2019-05-26T20:20:05.132Z,4.73
2019-05-26T20:22:33.379Z,4.50
2019-05-26T20:25:01.173Z,4.37
2019-05-26T20:27:28.898Z,4.80
2019-05-26T20:29:56.665Z,4.73
2019-05-26T20:32:24.442Z,4.60
2019-05-26T20:34:52.217Z,4.53
2019-05-26T20:37:20.047Z,5.60
2019-05-26T20:39:47.795Z,4.40
2019-05-26T20:42:15.790Z,4.90
2019-05-26T20:44:43.517Z,5.27
2019-05-26T20:47:11.249Z,4.73
2019-05-26T20:49:45.535Z,5.00
2019-05-26T20:52:08.708Z,5.60
2019-05-26T20:54:37.724Z,4.97
2019-05-26T20:57:05.376Z,4.90
2019-05-26T20:59:35.153Z,4.73
2019-05-26T21:02:02.979Z,4.93
2019-05-26T21:04:30.877Z,5.07
2019-05-26T21:06:58.632Z,4.43
2019-05-26T21:09:26.373Z,4.13
2019-05-26T21:11:54.274Z,4.57
2019-05-26T21:14:22.087Z,4.60
2019-05-26T21:16:49.992Z,4.27
2019-05-26T21:19:17.834Z,4.17
2019-05-26T21:21:45.584Z,4.53
2019-05-26T21:24:13.422Z,3.90
2019-05-26T21:26:41.262Z,4.27
2019-05-26T21:29:09.312Z,4.33
2019-05-26T21:31:37.018Z,4.53
2019-05-26T21:34:04.745Z,5.47
2019-05-26T21:36:33.704Z,4.83
2019-05-26T21:39:01.880Z,4.10
2019-05-26T21:41:30.105Z,3.87
2019-05-26T21:43:58.074Z,4.07
2019-05-26T21:46:25.787Z,4.00
2019-05-26T21:48:53.667Z,4.20
2019-05-26T21:51:21.389Z,4.53
2019-05-26T21:53:49.132Z,4.37
2019-05-26T21:56:16.942Z,3.77
2019-05-26T21:58:44.728Z,4.07
2019-05-26T22:01:12.627Z,4.10
2019-05-26T22:03:40.514Z,4.03
2019-05-26T22:06:08.177Z,3.87
2019-05-26T22:08:35.908Z,4.40
2019-05-26T22:11:03.687Z,3.90
2019-05-26T22:13:31.508Z,3.77
2019-05-26T22:16:00.769Z,4.40
2019-05-26T22:18:28.654Z,3.97
2019-05-26T22:20:56.605Z,4.33
2019-05-26T22:23:24.372Z,3.87
2019-05-26T22:25:52.187Z,4.47
2019-05-26T22:28:19.914Z,4.00
2019-05-26T22:30:48.309Z,4.17
2019-05-26T22:33:21.020Z,3.97
2019-05-26T22:35:49.493Z,3.70
2019-05-26T22:38:19.015Z,4.30
2019-05-26T22:40:46.754Z,3.80
2019-05-26T22:43:17.982Z,3.63
2019-05-26T22:45:45.801Z,4.20
2019-05-26T22:48:15.583Z,4.10
2019-05-26T22:50:43.438Z,3.70
2019-05-26T22:53:12.341Z,3.40
2019-05-26T22:55:40.103Z,3.40
2019-05-26T22:58:07.830Z,3.50
2019-05-26T23:00:35.550Z,3.60
2019-05-26T23:03:03.291Z,4.07
2019-05-26T23:05:33.621Z,3.53
2019-05-26T23:08:01.422Z,4.03
2019-05-26T23:10:29.221Z,3.37
2019-05-26T23:12:56.934Z,3.93
2019-05-26T23:15:24.728Z,3.90
2019-05-26T23:17:52.450Z,4.17
2019-05-26T23:20:20.193Z,4.03
2019-05-26T23:22:51.322Z,3.87
2019-05-26T23:25:19.030Z,4.17
2019-05-26T23:27:47.278Z,4.30
2019-05-26T23:30:15.244Z,4.27
2019-05-26T23:32:42.993Z,4.20
2019-05-26T23:35:10.733Z,3.60
2019-05-26T23:37:38.461Z,4.10
2019-05-26T23:40:06.185Z,4.10
2019-05-26T23:42:46.530Z,3.40
2019-05-26T23:45:14.254Z,4.10
2019-05-26T23:47:44.247Z,3.73
2019-05-26T23:50:12.020Z,3.47
2019-05-26T23:52:39.845Z,3.43
2019-05-26T23:55:09.890Z,3.63
2019-05-26T23:57:37.638Z,4.37
